sensor_id;sensor_type;location;lat;lon;timestamp;pressure;altitude;pressure_sealevel;temperature;humidity
20942;BME280;10630;53.734;10.282;2023-02-22T00:01:15;101282.19;;;14.60;72.37
20942;BME280;10630;53.734;10.282;2023-02-22T00:04:04;101285.88;;;14.59;72.58
20942;BME280;10630;53.734;10.282;2023-02-22T00:06:31;101276.91;;;14.29;73.21
20942;BME280;10630;53.734;10.282;2023-02-22T00:08:58;101277.91;;;14.28;73.38
20942;BME280;10630;53.734;10.282;2023-02-22T00:11:27;101279.50;;;14.37;72.92
20942;BME280;10630;53.734;10.282;2023-02-22T00:13:54;101273.50;;;14.35;73.10
20942;BME280;10630;53.734;10.282;2023-02-22T00:16:23;101273.56;;;14.50;72.83
20942;BME280;10630;53.734;10.282;2023-02-22T00:18:50;101274.56;;;14.49;72.13
20942;BME280;10630;53.734;10.282;2023-02-22T00:21:18;101271.34;;;14.53;72.15
20942;BME280;10630;53.734;10.282;2023-02-22T00:23:46;101265.94;;;14.38;73.05
20942;BME280;10630;53.734;10.282;2023-02-22T00:26:17;101272.28;;;14.61;72.20
20942;BME280;10630;53.734;10.282;2023-02-22T00:28:46;101264.44;;;14.59;71.35
20942;BME280;10630;53.734;10.282;2023-02-22T00:31:14;101257.06;;;14.38;72.60
20942;BME280;10630;53.734;10.282;2023-02-22T00:33:41;101256.94;;;14.08;73.96
20942;BME280;10630;53.734;10.282;2023-02-22T00:36:09;101262.28;;;14.08;75.25
20942;BME280;10630;53.734;10.282;2023-02-22T00:38:36;101256.56;;;13.88;75.67
20942;BME280;10630;53.734;10.282;2023-02-22T00:41:03;101254.97;;;14.02;75.35
20942;BME280;10630;53.734;10.282;2023-02-22T00:43:30;101255.41;;;14.14;74.96
20942;BME280;10630;53.734;10.282;2023-02-22T00:45:56;101255.53;;;14.20;73.77
20942;BME280;10630;53.734;10.282;2023-02-22T00:48:23;101263.53;;;14.29;73.44
20942;BME280;10630;53.734;10.282;2023-02-22T00:50:50;101263.16;;;14.32;73.57
20942;BME280;10630;53.734;10.282;2023-02-22T00:53:21;101258.59;;;14.40;72.58
20942;BME280;10630;53.734;10.282;2023-02-22T00:55:48;101265.34;;;14.05;72.91
20942;BME280;10630;53.734;10.282;2023-02-22T00:58:15;101257.41;;;14.12;74.17
20942;BME280;10630;53.734;10.282;2023-02-22T01:00:43;101248.88;;;14.16;73.42
20942;BME280;10630;53.734;10.282;2023-02-22T01:03:10;101251.59;;;14.08;73.67
20942;BME280;10630;53.734;10.282;2023-02-22T01:05:38;101248.63;;;14.03;74.08
20942;BME280;10630;53.734;10.282;2023-02-22T01:08:06;101251.97;;;14.05;73.30
20942;BME280;10630;53.734;10.282;2023-02-22T01:10:33;101255.53;;;13.89;73.74
20942;BME280;10630;53.734;10.282;2023-02-22T01:13:01;101252.06;;;13.88;73.92
20942;BME280;10630;53.734;10.282;2023-02-22T01:15:34;101250.88;;;13.91;73.90
20942;BME280;10630;53.734;10.282;2023-02-22T01:18:01;101249.44;;;13.72;74.73
20942;BME280;10630;53.734;10.282;2023-02-22T01:20:28;101261.47;;;13.76;74.51
20942;BME280;10630;53.734;10.282;2023-02-22T01:22:56;101256.31;;;13.66;75.50
20942;BME280;10630;53.734;10.282;2023-02-22T01:25:25;101261.13;;;13.79;74.72
20942;BME280;10630;53.734;10.282;2023-02-22T01:27:52;101261.09;;;13.87;74.11
20942;BME280;10630;53.734;10.282;2023-02-22T01:30:21;101261.47;;;13.76;74.11
20942;BME280;10630;53.734;10.282;2023-02-22T01:32:48;101262.19;;;14.01;73.38
20942;BME280;10630;53.734;10.282;2023-02-22T01:35:17;101259.66;;;14.00;73.00
20942;BME280;10630;53.734;10.282;2023-02-22T01:37:44;101260.66;;;13.99;72.89
20942;BME280;10630;53.734;10.282;2023-02-22T01:40:21;101252.28;;;13.79;74.04
20942;BME280;10630;53.734;10.282;2023-02-22T01:42:59;101255.41;;;13.90;74.13
20942;BME280;10630;53.734;10.282;2023-02-22T01:48:19;101251.56;;;13.85;74.51
20942;BME280;10630;53.734;10.282;2023-02-22T01:50:53;101246.50;;;13.90;74.27
20942;BME280;10630;53.734;10.282;2023-02-22T01:53:22;101249.59;;;13.79;74.24
20942;BME280;10630;53.734;10.282;2023-02-22T01:55:49;101248.09;;;13.76;74.21
20942;BME280;10630;53.734;10.282;2023-02-22T01:58:16;101247.00;;;13.93;74.60
20942;BME280;10630;53.734;10.282;2023-02-22T02:00:44;101243.06;;;13.81;74.32
20942;BME280;10630;53.734;10.282;2023-02-22T02:03:13;101241.75;;;13.69;75.49
20942;BME280;10630;53.734;10.282;2023-02-22T02:05:41;101239.44;;;13.97;74.56
20942;BME280;10630;53.734;10.282;2023-02-22T02:10:54;101235.44;;;14.01;74.56
20942;BME280;10630;53.734;10.282;2023-02-22T02:13:21;101232.69;;;14.09;73.75
20942;BME280;10630;53.734;10.282;2023-02-22T02:15:48;101234.63;;;13.92;74.07
20942;BME280;10630;53.734;10.282;2023-02-22T02:18:18;101235.59;;;13.68;76.02
20942;BME280;10630;53.734;10.282;2023-02-22T02:30:55;101212.78;;;13.81;76.58
20942;BME280;10630;53.734;10.282;2023-02-22T02:33:30;101216.13;;;13.51;78.05
20942;BME280;10630;53.734;10.282;2023-02-22T02:36:03;101211.97;;;13.80;76.71
20942;BME280;10630;53.734;10.282;2023-02-22T02:38:37;101209.94;;;13.82;76.09
20942;BME280;10630;53.734;10.282;2023-02-22T02:41:14;101221.50;;;13.43;77.60
20942;BME280;10630;53.734;10.282;2023-02-22T02:49:00;101205.56;;;13.89;75.47
20942;BME280;10630;53.734;10.282;2023-02-22T02:51:30;101210.50;;;14.01;75.00
20942;BME280;10630;53.734;10.282;2023-02-22T02:53:58;101207.53;;;13.96;74.85
20942;BME280;10630;53.734;10.282;2023-02-22T02:56:26;101205.56;;;13.89;74.93
20942;BME280;10630;53.734;10.282;2023-02-22T02:58:53;101208.25;;;13.89;75.29
20942;BME280;10630;53.734;10.282;2023-02-22T03:04:31;101200.88;;;13.60;76.61
20942;BME280;10630;53.734;10.282;2023-02-22T03:06:54;101193.22;;;13.49;77.77
20942;BME280;10630;53.734;10.282;2023-02-22T03:09:32;101196.56;;;13.82;76.84
20942;BME280;10630;53.734;10.282;2023-02-22T03:14:55;101196.34;;;13.92;75.28
20942;BME280;10630;53.734;10.282;2023-02-22T03:17:27;101195.44;;;13.76;76.07
20942;BME280;10630;53.734;10.282;2023-02-22T03:19:58;101192.81;;;13.91;76.08
20942;BME280;10630;53.734;10.282;2023-02-22T03:22:32;101194.97;;;13.96;75.83
20942;BME280;10630;53.734;10.282;2023-02-22T03:25:03;101185.94;;;13.97;75.43
20942;BME280;10630;53.734;10.282;2023-02-22T03:27:42;101184.69;;;14.08;74.98
20942;BME280;10630;53.734;10.282;2023-02-22T03:30:16;101183.78;;;13.92;74.89
20942;BME280;10630;53.734;10.282;2023-02-22T03:32:45;101175.56;;;13.71;76.65
20942;BME280;10630;53.734;10.282;2023-02-22T03:35:32;101168.22;;;13.96;76.40
20942;BME280;10630;53.734;10.282;2023-02-22T03:38:01;101175.38;;;13.72;76.34
20942;BME280;10630;53.734;10.282;2023-02-22T03:40:33;101178.59;;;13.68;77.24
20942;BME280;10630;53.734;10.282;2023-02-22T03:43:04;101173.84;;;13.78;76.61
20942;BME280;10630;53.734;10.282;2023-02-22T03:45:32;101177.53;;;13.77;77.21
20942;BME280;10630;53.734;10.282;2023-02-22T03:48:02;101174.38;;;13.73;76.55
20942;BME280;10630;53.734;10.282;2023-02-22T03:50:31;101177.22;;;13.72;76.59
20942;BME280;10630;53.734;10.282;2023-02-22T03:53:00;101184.19;;;13.50;77.54
20942;BME280;10630;53.734;10.282;2023-02-22T03:55:27;101174.78;;;13.62;77.77
20942;BME280;10630;53.734;10.282;2023-02-22T03:57:57;101176.28;;;13.65;77.94
20942;BME280;10630;53.734;10.282;2023-02-22T04:00:25;101175.34;;;13.49;78.68
20942;BME280;10630;53.734;10.282;2023-02-22T04:02:51;101169.97;;;13.57;77.99
20942;BME280;10630;53.734;10.282;2023-02-22T04:05:18;101176.97;;;13.58;77.91
20942;BME280;10630;53.734;10.282;2023-02-22T04:07:45;101177.91;;;13.74;77.74
20942;BME280;10630;53.734;10.282;2023-02-22T04:10:13;101175.78;;;13.61;78.10
20942;BME280;10630;53.734;10.282;2023-02-22T04:12:40;101182.91;;;13.69;77.31
20942;BME280;10630;53.734;10.282;2023-02-22T04:15:07;101180.56;;;13.74;77.34
20942;BME280;10630;53.734;10.282;2023-02-22T04:17:34;101184.84;;;13.83;76.80
20942;BME280;10630;53.734;10.282;2023-02-22T04:20:01;101182.00;;;13.85;76.88
20942;BME280;10630;53.734;10.282;2023-02-22T04:22:29;101185.78;;;13.67;77.64
20942;BME280;10630;53.734;10.282;2023-02-22T04:24:55;101188.59;;;13.74;77.30
20942;BME280;10630;53.734;10.282;2023-02-22T04:27:22;101189.38;;;13.83;77.39
20942;BME280;10630;53.734;10.282;2023-02-22T04:29:48;101193.53;;;13.85;77.24
20942;BME280;10630;53.734;10.282;2023-02-22T04:32:15;101187.47;;;13.91;76.13
20942;BME280;10630;53.734;10.282;2023-02-22T04:34:42;101179.22;;;14.01;76.18
20942;BME280;10630;53.734;10.282;2023-02-22T04:37:09;101192.47;;;13.95;76.16
20942;BME280;10630;53.734;10.282;2023-02-22T04:39:36;101193.91;;;13.82;76.55
20942;BME280;10630;53.734;10.282;2023-02-22T04:42:02;101180.81;;;13.87;76.75
20942;BME280;10630;53.734;10.282;2023-02-22T04:44:30;101185.63;;;13.92;76.71
20942;BME280;10630;53.734;10.282;2023-02-22T04:46:57;101178.44;;;13.69;76.93
20942;BME280;10630;53.734;10.282;2023-02-22T04:49:23;101178.91;;;13.73;78.20
20942;BME280;10630;53.734;10.282;2023-02-22T04:51:50;101176.75;;;13.68;77.93
20942;BME280;10630;53.734;10.282;2023-02-22T04:54:17;101179.22;;;13.47;79.44
20942;BME280;10630;53.734;10.282;2023-02-22T04:56:44;101178.75;;;13.66;78.52
20942;BME280;10630;53.734;10.282;2023-02-22T04:59:13;101178.44;;;13.92;77.52
20942;BME280;10630;53.734;10.282;2023-02-22T05:01:40;101177.84;;;13.82;76.95
20942;BME280;10630;53.734;10.282;2023-02-22T05:04:07;101176.72;;;13.76;77.48
20942;BME280;10630;53.734;10.282;2023-02-22T05:06:34;101186.34;;;13.54;78.77
20942;BME280;10630;53.734;10.282;2023-02-22T05:09:01;101181.75;;;13.71;78.93
20942;BME280;10630;53.734;10.282;2023-02-22T05:11:27;101177.22;;;13.72;78.34
20942;BME280;10630;53.734;10.282;2023-02-22T05:13:54;101169.75;;;13.27;79.08
20942;BME280;10630;53.734;10.282;2023-02-22T05:16:21;101174.88;;;13.45;80.65
20942;BME280;10630;53.734;10.282;2023-02-22T05:18:49;101171.63;;;13.58;79.38
20942;BME280;10630;53.734;10.282;2023-02-22T05:21:16;101167.00;;;13.52;79.54
20942;BME280;10630;53.734;10.282;2023-02-22T05:23:43;101172.44;;;13.19;80.82
20942;BME280;10630;53.734;10.282;2023-02-22T05:26:10;101168.13;;;13.10;83.25
20942;BME280;10630;53.734;10.282;2023-02-22T05:28:37;101167.84;;;12.96;84.90
20942;BME280;10630;53.734;10.282;2023-02-22T05:31:05;101166.41;;;13.25;82.56
20942;BME280;10630;53.734;10.282;2023-02-22T05:33:34;101169.72;;;13.44;82.21
20942;BME280;10630;53.734;10.282;2023-02-22T05:36:01;101167.47;;;12.99;82.26
20942;BME280;10630;53.734;10.282;2023-02-22T05:38:27;101162.50;;;13.36;82.68
20942;BME280;10630;53.734;10.282;2023-02-22T05:40:54;101162.94;;;13.56;80.84
20942;BME280;10630;53.734;10.282;2023-02-22T05:43:22;101168.03;;;13.43;80.66
20942;BME280;10630;53.734;10.282;2023-02-22T05:45:50;101175.47;;;13.08;82.09
20942;BME280;10630;53.734;10.282;2023-02-22T05:48:17;101182.09;;;13.28;82.68
20942;BME280;10630;53.734;10.282;2023-02-22T05:50:47;101176.41;;;13.71;80.33
20942;BME280;10630;53.734;10.282;2023-02-22T05:53:15;101166.00;;;13.45;80.43
20942;BME280;10630;53.734;10.282;2023-02-22T05:55:46;101173.38;;;13.35;81.11
20942;BME280;10630;53.734;10.282;2023-02-22T05:58:13;101170.66;;;13.51;80.79
20942;BME280;10630;53.734;10.282;2023-02-22T06:00:47;101163.94;;;13.55;80.08
20942;BME280;10630;53.734;10.282;2023-02-22T06:03:14;101174.03;;;13.76;79.86
20942;BME280;10630;53.734;10.282;2023-02-22T06:05:41;101167.72;;;13.69;79.28
20942;BME280;10630;53.734;10.282;2023-02-22T06:08:08;101174.06;;;13.68;80.11
20942;BME280;10630;53.734;10.282;2023-02-22T06:10:34;101166.41;;;13.65;79.70
20942;BME280;10630;53.734;10.282;2023-02-22T06:13:02;101166.88;;;13.69;79.62
20942;BME280;10630;53.734;10.282;2023-02-22T06:15:29;101173.25;;;13.68;79.37
20942;BME280;10630;53.734;10.282;2023-02-22T06:17:56;101170.59;;;13.68;80.05
20942;BME280;10630;53.734;10.282;2023-02-22T06:20:24;101176.03;;;13.74;79.48
20942;BME280;10630;53.734;10.282;2023-02-22T06:22:53;101174.81;;;13.85;79.36
20942;BME280;10630;53.734;10.282;2023-02-22T06:25:22;101173.19;;;13.76;79.39
20942;BME280;10630;53.734;10.282;2023-02-22T06:27:49;101169.53;;;13.37;81.37
20942;BME280;10630;53.734;10.282;2023-02-22T06:30:17;101173.00;;;13.06;83.87
20942;BME280;10630;53.734;10.282;2023-02-22T06:32:46;101174.72;;;13.39;83.62
20942;BME280;10630;53.734;10.282;2023-02-22T06:35:13;101173.53;;;13.41;83.46
20942;BME280;10630;53.734;10.282;2023-02-22T06:37:39;101168.06;;;13.26;83.13
20942;BME280;10630;53.734;10.282;2023-02-22T06:40:06;101166.38;;;13.42;83.36
20942;BME280;10630;53.734;10.282;2023-02-22T06:42:34;101170.34;;;13.38;84.74
20942;BME280;10630;53.734;10.282;2023-02-22T06:45:00;101161.41;;;13.62;82.72
20942;BME280;10630;53.734;10.282;2023-02-22T06:47:27;101168.44;;;13.63;83.29
20942;BME280;10630;53.734;10.282;2023-02-22T06:49:54;101170.06;;;13.64;82.80
20942;BME280;10630;53.734;10.282;2023-02-22T06:52:21;101166.03;;;13.37;83.71
20942;BME280;10630;53.734;10.282;2023-02-22T06:54:48;101168.91;;;13.67;82.60
20942;BME280;10630;53.734;10.282;2023-02-22T06:57:15;101173.41;;;13.26;85.78
20942;BME280;10630;53.734;10.282;2023-02-22T06:59:42;101166.13;;;13.12;86.38
20942;BME280;10630;53.734;10.282;2023-02-22T07:02:11;101168.59;;;13.61;85.45
20942;BME280;10630;53.734;10.282;2023-02-22T07:04:40;101175.50;;;13.56;84.83
20942;BME280;10630;53.734;10.282;2023-02-22T07:07:08;101166.47;;;13.09;86.16
20942;BME280;10630;53.734;10.282;2023-02-22T07:09:36;101175.06;;;13.36;87.10
20942;BME280;10630;53.734;10.282;2023-02-22T07:12:03;101173.03;;;13.77;84.81
20942;BME280;10630;53.734;10.282;2023-02-22T07:14:30;101173.50;;;13.81;82.92
20942;BME280;10630;53.734;10.282;2023-02-22T07:16:56;101173.41;;;13.66;84.63
20942;BME280;10630;53.734;10.282;2023-02-22T07:19:24;101177.59;;;13.92;83.68
20942;BME280;10630;53.734;10.282;2023-02-22T07:21:51;101178.09;;;13.64;82.69
20942;BME280;10630;53.734;10.282;2023-02-22T07:24:25;101176.81;;;13.12;87.75
20942;BME280;10630;53.734;10.282;2023-02-22T07:26:53;101178.47;;;13.84;85.21
20942;BME280;10630;53.734;10.282;2023-02-22T07:29:20;101171.53;;;13.43;85.68
20942;BME280;10630;53.734;10.282;2023-02-22T07:31:47;101176.34;;;13.48;86.45
20942;BME280;10630;53.734;10.282;2023-02-22T07:34:14;101179.38;;;13.76;86.10
20942;BME280;10630;53.734;10.282;2023-02-22T07:36:41;101166.47;;;13.80;85.19
20942;BME280;10630;53.734;10.282;2023-02-22T07:39:08;101171.16;;;13.78;85.30
20942;BME280;10630;53.734;10.282;2023-02-22T07:41:34;101172.19;;;13.77;84.26
20942;BME280;10630;53.734;10.282;2023-02-22T07:44:00;101171.25;;;13.61;86.17
20942;BME280;10630;53.734;10.282;2023-02-22T07:46:27;101165.91;;;13.61;85.89
20942;BME280;10630;53.734;10.282;2023-02-22T07:48:54;101172.13;;;13.62;86.91
20942;BME280;10630;53.734;10.282;2023-02-22T07:51:21;101167.91;;;13.91;85.64
20942;BME280;10630;53.734;10.282;2023-02-22T07:53:48;101171.78;;;13.17;88.35
20942;BME280;10630;53.734;10.282;2023-02-22T07:56:15;101175.22;;;13.34;89.89
20942;BME280;10630;53.734;10.282;2023-02-22T07:58:43;101175.06;;;13.44;87.75
20942;BME280;10630;53.734;10.282;2023-02-22T08:01:09;101171.03;;;13.32;87.84
20942;BME280;10630;53.734;10.282;2023-02-22T08:03:37;101166.91;;;13.21;91.62
20942;BME280;10630;53.734;10.282;2023-02-22T08:06:04;101170.78;;;13.58;88.00
20942;BME280;10630;53.734;10.282;2023-02-22T08:08:32;101160.38;;;13.95;88.14
20942;BME280;10630;53.734;10.282;2023-02-22T08:10:59;101168.47;;;14.09;85.16
20942;BME280;10630;53.734;10.282;2023-02-22T08:13:28;101167.53;;;13.71;87.22
20942;BME280;10630;53.734;10.282;2023-02-22T08:15:54;101159.97;;;14.06;86.16
20942;BME280;10630;53.734;10.282;2023-02-22T08:18:21;101160.84;;;13.75;87.16
20942;BME280;10630;53.734;10.282;2023-02-22T08:20:48;101155.69;;;13.97;87.40
20942;BME280;10630;53.734;10.282;2023-02-22T08:23:17;101155.78;;;13.80;86.43
20942;BME280;10630;53.734;10.282;2023-02-22T08:25:44;101159.22;;;13.66;89.72
20942;BME280;10630;53.734;10.282;2023-02-22T08:28:12;101146.59;;;14.06;86.60
20942;BME280;10630;53.734;10.282;2023-02-22T08:30:40;101144.50;;;13.93;85.94
20942;BME280;10630;53.734;10.282;2023-02-22T08:33:10;101150.19;;;13.90;90.13
20942;BME280;10630;53.734;10.282;2023-02-22T08:35:39;101149.69;;;14.33;85.56
20942;BME280;10630;53.734;10.282;2023-02-22T08:38:07;101145.41;;;14.23;86.26
20942;BME280;10630;53.734;10.282;2023-02-22T08:40:40;101143.59;;;14.01;87.85
20942;BME280;10630;53.734;10.282;2023-02-22T08:43:07;101140.84;;;13.63;92.08
20942;BME280;10630;53.734;10.282;2023-02-22T08:45:33;101137.22;;;14.40;87.28
20942;BME280;10630;53.734;10.282;2023-02-22T08:48:00;101130.88;;;14.56;84.91
20942;BME280;10630;53.734;10.282;2023-02-22T08:50:29;101132.53;;;14.04;85.97
20942;BME280;10630;53.734;10.282;2023-02-22T08:52:57;101135.88;;;13.83;87.89
20942;BME280;10630;53.734;10.282;2023-02-22T08:55:25;101133.34;;;14.04;88.71
20942;BME280;10630;53.734;10.282;2023-02-22T08:57:52;101137.91;;;14.19;87.42
20942;BME280;10630;53.734;10.282;2023-02-22T09:00:19;101134.91;;;13.99;86.88
20942;BME280;10630;53.734;10.282;2023-02-22T09:02:47;101127.28;;;14.64;84.09
20942;BME280;10630;53.734;10.282;2023-02-22T09:05:13;101134.75;;;14.38;84.89
20942;BME280;10630;53.734;10.282;2023-02-22T09:07:42;101133.50;;;14.26;88.23
20942;BME280;10630;53.734;10.282;2023-02-22T09:10:10;101128.84;;;14.05;89.08
20942;BME280;10630;53.734;10.282;2023-02-22T09:12:40;101129.31;;;13.85;89.95
20942;BME280;10630;53.734;10.282;2023-02-22T09:15:07;101121.72;;;14.35;90.26
20942;BME280;10630;53.734;10.282;2023-02-22T09:17:36;101124.94;;;14.31;86.93
20942;BME280;10630;53.734;10.282;2023-02-22T09:20:04;101116.69;;;14.17;87.99
20942;BME280;10630;53.734;10.282;2023-02-22T09:22:31;101117.63;;;14.24;87.58
20942;BME280;10630;53.734;10.282;2023-02-22T09:24:58;101120.84;;;14.20;88.71
20942;BME280;10630;53.734;10.282;2023-02-22T09:27:32;101121.75;;;14.50;87.99
20942;BME280;10630;53.734;10.282;2023-02-22T09:29:59;101118.22;;;14.50;87.12
20942;BME280;10630;53.734;10.282;2023-02-22T09:32:26;101114.88;;;14.33;88.51
20942;BME280;10630;53.734;10.282;2023-02-22T09:34:53;101113.94;;;14.79;87.45
20942;BME280;10630;53.734;10.282;2023-02-22T09:37:20;101115.25;;;14.98;86.18
20942;BME280;10630;53.734;10.282;2023-02-22T09:39:47;101118.41;;;14.48;86.57
20942;BME280;10630;53.734;10.282;2023-02-22T09:47:40;101115.66;;;14.56;88.35
20942;BME280;10630;53.734;10.282;2023-02-22T09:50:12;101109.09;;;15.19;84.67
20942;BME280;10630;53.734;10.282;2023-02-22T09:52:56;101116.00;;;14.53;84.55
20942;BME280;10630;53.734;10.282;2023-02-22T09:58:01;101115.69;;;14.86;85.75
20942;BME280;10630;53.734;10.282;2023-02-22T10:00:32;101107.75;;;14.78;87.43
20942;BME280;10630;53.734;10.282;2023-02-22T10:06:03;101096.28;;;14.84;87.32
20942;BME280;10630;53.734;10.282;2023-02-22T10:08:31;101098.81;;;15.23;83.71
20942;BME280;10630;53.734;10.282;2023-02-22T10:11:04;101099.22;;;15.19;81.76
20942;BME280;10630;53.734;10.282;2023-02-22T10:13:47;101101.09;;;14.74;85.13
20942;BME280;10630;53.734;10.282;2023-02-22T10:24:14;101093.56;;;15.51;81.97
20942;BME280;10630;53.734;10.282;2023-02-22T10:26:44;101092.09;;;15.48;79.10
20942;BME280;10630;53.734;10.282;2023-02-22T10:29:28;101095.25;;;15.37;78.61
20942;BME280;10630;53.734;10.282;2023-02-22T10:32:04;101098.56;;;15.76;79.95
20942;BME280;10630;53.734;10.282;2023-02-22T10:34:44;101095.81;;;15.69;79.41
20942;BME280;10630;53.734;10.282;2023-02-22T10:37:15;101092.41;;;15.39;80.79
20942;BME280;10630;53.734;10.282;2023-02-22T10:39:44;101096.25;;;14.39;82.72
20942;BME280;10630;53.734;10.282;2023-02-22T10:42:13;101090.00;;;14.77;85.73
20942;BME280;10630;53.734;10.282;2023-02-22T10:44:40;101090.97;;;15.58;80.05
20942;BME280;10630;53.734;10.282;2023-02-22T10:47:08;101091.34;;;15.55;77.80
20942;BME280;10630;53.734;10.282;2023-02-22T10:49:38;101083.81;;;15.43;79.98
20942;BME280;10630;53.734;10.282;2023-02-22T10:52:25;101093.31;;;15.09;80.91
20942;BME280;10630;53.734;10.282;2023-02-22T10:54:53;101091.00;;;15.64;78.38
20942;BME280;10630;53.734;10.282;2023-02-22T10:57:32;101077.31;;;15.16;78.15
20942;BME280;10630;53.734;10.282;2023-02-22T11:00:16;101085.81;;;15.04;78.76
20942;BME280;10630;53.734;10.282;2023-02-22T11:02:58;101083.34;;;14.88;82.72
20942;BME280;10630;53.734;10.282;2023-02-22T11:08:12;101073.44;;;15.03;82.54
20942;BME280;10630;53.734;10.282;2023-02-22T11:10:40;101074.63;;;15.16;82.21
20942;BME280;10630;53.734;10.282;2023-02-22T11:15:57;101067.50;;;14.33;83.72
20942;BME280;10630;53.734;10.282;2023-02-22T11:18:25;101074.81;;;14.24;88.33
20942;BME280;10630;53.734;10.282;2023-02-22T11:21:14;101063.56;;;15.04;83.86
20942;BME280;10630;53.734;10.282;2023-02-22T11:23:44;101057.84;;;14.77;84.76
20942;BME280;10630;53.734;10.282;2023-02-22T11:26:12;101054.66;;;15.18;82.49
20942;BME280;10630;53.734;10.282;2023-02-22T11:28:43;101051.97;;;14.67;84.27
20942;BME280;10630;53.734;10.282;2023-02-22T11:31:21;101042.97;;;15.48;81.49
20942;BME280;10630;53.734;10.282;2023-02-22T11:36:31;101033.50;;;15.09;82.92
20942;BME280;10630;53.734;10.282;2023-02-22T11:38:58;101025.16;;;15.40;83.26
20942;BME280;10630;53.734;10.282;2023-02-22T11:41:26;101020.16;;;15.80;80.11
20942;BME280;10630;53.734;10.282;2023-02-22T11:43:54;101018.50;;;15.79;80.66
20942;BME280;10630;53.734;10.282;2023-02-22T11:46:38;101019.13;;;16.03;80.04
20942;BME280;10630;53.734;10.282;2023-02-22T11:49:10;101008.94;;;15.48;78.02
20942;BME280;10630;53.734;10.282;2023-02-22T11:59:40;101002.56;;;15.49;78.86
20942;BME280;10630;53.734;10.282;2023-02-22T12:04:53;100991.94;;;15.63;77.00
20942;BME280;10630;53.734;10.282;2023-02-22T12:09:59;100987.22;;;15.22;79.20
20942;BME280;10630;53.734;10.282;2023-02-22T12:12:37;100985.78;;;15.91;75.55
20942;BME280;10630;53.734;10.282;2023-02-22T12:25:20;100978.81;;;16.32;71.09
20942;BME280;10630;53.734;10.282;2023-02-22T12:27:52;100985.41;;;16.29;70.78
20942;BME280;10630;53.734;10.282;2023-02-22T12:30:22;100989.81;;;15.80;72.60
20942;BME280;10630;53.734;10.282;2023-02-22T12:32:51;100980.03;;;16.29;70.55
20942;BME280;10630;53.734;10.282;2023-02-22T12:35:20;100976.53;;;16.77;68.69
20942;BME280;10630;53.734;10.282;2023-02-22T12:37:51;100977.34;;;15.94;70.69
20942;BME280;10630;53.734;10.282;2023-02-22T12:40:30;100970.00;;;15.09;73.62
20942;BME280;10630;53.734;10.282;2023-02-22T12:43:14;100963.63;;;15.32;75.57
20942;BME280;10630;53.734;10.282;2023-02-22T12:45:44;100960.25;;;15.23;75.33
20942;BME280;10630;53.734;10.282;2023-02-22T12:50:48;100954.41;;;16.75;69.41
20942;BME280;10630;53.734;10.282;2023-02-22T12:53:20;100955.50;;;15.97;69.15
20942;BME280;10630;53.734;10.282;2023-02-22T12:55:56;100950.66;;;16.63;69.09
20942;BME280;10630;53.734;10.282;2023-02-22T12:58:38;100946.97;;;15.65;69.91
20942;BME280;10630;53.734;10.282;2023-02-22T13:01:20;100949.34;;;16.10;72.64
20942;BME280;10630;53.734;10.282;2023-02-22T13:03:47;100949.03;;;16.26;70.22
20942;BME280;10630;53.734;10.282;2023-02-22T13:11:29;100936.56;;;16.05;70.55
20942;BME280;10630;53.734;10.282;2023-02-22T13:14:17;100931.47;;;16.72;69.17
20942;BME280;10630;53.734;10.282;2023-02-22T13:24:40;100920.78;;;17.13;65.34
20942;BME280;10630;53.734;10.282;2023-02-22T13:27:12;100927.84;;;17.40;64.28
20942;BME280;10630;53.734;10.282;2023-02-22T13:29:41;100935.91;;;17.54;63.61
20942;BME280;10630;53.734;10.282;2023-02-22T13:32:11;100929.91;;;17.79;62.38
20942;BME280;10630;53.734;10.282;2023-02-22T13:37:20;100917.88;;;17.88;61.72
20942;BME280;10630;53.734;10.282;2023-02-22T13:42:39;100923.09;;;17.29;61.79
20942;BME280;10630;53.734;10.282;2023-02-22T13:53:15;100912.50;;;17.81;60.21
20942;BME280;10630;53.734;10.282;2023-02-22T13:55:45;100912.94;;;17.45;60.84
20942;BME280;10630;53.734;10.282;2023-02-22T13:58:14;100903.72;;;18.13;59.69
20942;BME280;10630;53.734;10.282;2023-02-22T14:00:43;100907.50;;;18.12;58.19
20942;BME280;10630;53.734;10.282;2023-02-22T14:08:06;100896.81;;;17.58;59.55
20942;BME280;10630;53.734;10.282;2023-02-22T14:10:38;100902.13;;;17.78;60.36
20942;BME280;10630;53.734;10.282;2023-02-22T14:13:09;100904.28;;;17.43;60.36
20942;BME280;10630;53.734;10.282;2023-02-22T14:16:14;100903.78;;;17.93;59.54
20942;BME280;10630;53.734;10.282;2023-02-22T14:18:27;100900.09;;;17.60;60.43
20942;BME280;10630;53.734;10.282;2023-02-22T14:21:07;100899.84;;;18.47;57.51
20942;BME280;10630;53.734;10.282;2023-02-22T14:26:23;100905.00;;;17.90;58.52
20942;BME280;10630;53.734;10.282;2023-02-22T14:34:05;100895.09;;;16.90;62.05
20942;BME280;10630;53.734;10.282;2023-02-22T14:36:34;100897.66;;;17.25;61.30
20942;BME280;10630;53.734;10.282;2023-02-22T14:39:06;100891.00;;;17.21;61.66
20942;BME280;10630;53.734;10.282;2023-02-22T14:41:34;100885.16;;;17.78;58.51
20942;BME280;10630;53.734;10.282;2023-02-22T14:44:03;100882.31;;;17.52;60.88
20942;BME280;10630;53.734;10.282;2023-02-22T14:46:31;100885.59;;;17.75;60.85
20942;BME280;10630;53.734;10.282;2023-02-22T14:49:01;100887.16;;;16.55;63.11
20942;BME280;10630;53.734;10.282;2023-02-22T14:51:32;100880.91;;;17.16;63.65